• Join FlightAware (Why Join?)
  • Login
  • US Flag 
10:43AM EDT


 

Airport Tracker/Info


-or-


 

Live Flight TrackerFlight Track Log ✈ N789EX ✈ 26-Mar-2014 ✈ KBFI - KBFI

Flight Track Log - Related Links

Times and Time Zones

All times are in EDT time to prevent confusion due to time zone crossing. See the N789EX flight status page for this flight to view local times or setup timezone preferences in your user account.

Time Position Orientation Groundspeed Altitude Reporting Facility
EDT Latitude Longitude Course Direction KTS MPH feet Rate Location/Type
04:09PM 47.5045 -122.2800 148° Southeast 185 213 1,600  Level FlightAware ADS-B
04:09PM 47.4929 -122.2690 146° Southeast 196 226 2,200 2,460 Climbing FlightAware ADS-B
04:09PM 47.4807 -122.2570 145° Southeast 199 229 2,900 2,580 Climbing FlightAware ADS-B
04:10PM 47.4686 -122.2440 144° Southeast 207 238 3,600 2,640 Climbing FlightAware ADS-B
04:10PM 47.4612 -122.2360 144° Southeast 210 242 4,000 3,000 Climbing FlightAware ADS-B
04:10PM 47.4494 -122.2240 145° Southeast 209 241 4,800 3,000 Climbing FlightAware ADS-B
04:10PM 47.4390 -122.2130 144° Southeast 216 249 5,400 2,160 Climbing FlightAware ADS-B
04:10PM 47.4291 -122.2020 144° Southeast 229 264 5,700 1,560 Climbing FlightAware ADS-B
04:11PM 47.4263 -122.2000 148° Southeast 232 267 5,800 840 Climbing FlightAware ADS-B
04:11PM 47.4232 -122.1970 154° Southeast 234 269 5,800 1,680 Level FlightAware ADS-B
04:11PM 47.4197 -122.1950 163° South 236 272 6,000 3,000 Climbing FlightAware ADS-B
04:11PM 47.4161 -122.1940 169° South 238 274 6,100 1,680 Climbing FlightAware ADS-B
04:11PM 47.4119 -122.1930 174° South 241 277 6,200 2,100 Climbing FlightAware ADS-B
04:11PM 47.3974 -122.1920 176° South 248 285 6,700 2,640 Climbing FlightAware ADS-B
04:11PM 47.3796 -122.1900 175° South 253 291 7,500 2,820 Climbing FlightAware ADS-B
04:11PM 47.3726 -122.1890 176° South 256 295 7,700 2,640 Climbing FlightAware ADS-B
04:11PM 47.3678 -122.1890 181° South 258 297 7,900 2,220 Climbing FlightAware ADS-B
04:11PM 47.3633 -122.1890 187° South 259 298 8,000 2,220 Climbing FlightAware ADS-B
04:12PM 47.3589 -122.1910 194° South 260 299 8,200 3,000 Climbing FlightAware ADS-B
04:12PM 47.3538 -122.1930 199° South 261 300 8,400 3,000 Climbing FlightAware ADS-B
04:12PM 47.3493 -122.1960 203° Southwest 264 304 8,600 2,760 Climbing FlightAware ADS-B
04:12PM 47.3396 -122.2030 207° Southwest 265 305 9,000 3,360 Climbing FlightAware ADS-B
04:12PM 47.3231 -122.2150 207° Southwest 258 297 10,000 3,720 Climbing FlightAware ADS-B
04:12PM 47.3140 -122.2220 209° Southwest 258 297 10,500 3,240 Climbing FlightAware ADS-B
04:12PM 47.3108 -122.2250 212° Southwest 258 297 10,600 2,520 Climbing FlightAware ADS-B
04:12PM 47.3069 -122.2290 217° Southwest 260 299 10,800 3,000 Climbing FlightAware ADS-B
04:12PM 47.3033 -122.2340 224° Southwest 260 299 11,000 2,220 Climbing FlightAware ADS-B
04:12PM 47.3002 -122.2400 231° Southwest 261 300 11,100 2,220 Climbing FlightAware ADS-B
04:13PM 47.2976 -122.2450 238° Southwest 263 303 11,300 3,000 Climbing FlightAware ADS-B
04:13PM 47.2958 -122.2500 244° Southwest 263 303 11,500 2,520 Climbing FlightAware ADS-B
04:13PM 47.2941 -122.2570 251° West 264 304 11,600 3,000 Climbing FlightAware ADS-B
04:13PM 47.2932 -122.2620 256° West 265 305 11,800 3,000 Climbing FlightAware ADS-B
04:13PM 47.2923 -122.2710 264° West 267 307 12,000 2,460 Climbing FlightAware ADS-B
04:13PM 47.2918 -122.3180 270° West 273 314 13,100 2,700 Climbing FlightAware ADS-B
04:13PM 47.2919 -122.3318 270° West 273 314 13,500 2,400 Climbing FlightAware ADS-B (CYVR)
04:14PM 47.2918 -122.3750 270° West 283 326 14,300 1,500 Climbing FlightAware ADS-B
04:14PM 47.2918 -122.3971 270° West 299 344 14,400 840 Climbing FlightAware ADS-B (CYVR)
04:14PM 47.2917 -122.4320 270° West 311 358 14,700 1,080 Climbing FlightAware ADS-B
04:15PM 47.2913 -122.5070 270° West 346 398 15,300 1,140 Climbing FlightAware ADS-B
04:15PM 47.2912 -122.5531 270° West 366 421 15,800 1,080 Climbing FlightAware ADS-B (CYVR)
04:15PM 47.2911 -122.5850 270° West 371 427 15,900 1,320 Climbing FlightAware ADS-B
04:16PM 47.2911 -122.6541 270° West 390 449 16,600 1,560 Climbing FlightAware ADS-B (CYWH)
04:16PM 47.2911 -122.6750 270° West 391 450 16,800 2,220 Climbing FlightAware ADS-B
04:16PM 47.2912 -122.7378 270° West 399 459 17,900 2,220 Climbing FlightAware ADS-B (CYWH)
04:16PM 47.2912 -122.7610 270° West 399 459 18,000 2,280 Climbing FlightAware ADS-B
04:17PM 47.2918 -122.8340 270° West 401 461 19,100 2,460 Climbing FlightAware ADS-B
04:17PM 47.2915 -122.8470 267° West 400 460 19,300 3,000 Climbing FlightAware ADS-B
04:17PM 47.2915 -122.8455 262° West 400 460 19,500 1,980 Climbing FlightAware ADS-B (CYWH)
04:17PM 47.2891 -122.8700 259° West 399 459 19,600 1,860 Climbing FlightAware ADS-B
04:17PM 47.2820 -122.9060 252° West 401 461 20,100 2,040 Climbing FlightAware ADS-B
04:17PM 47.2743 -122.9369 249° West 403 464 20,500 2,040 Climbing FlightAware ADS-B (CYWH)
04:18PM 47.2605 -122.9880 248° West 406 467 21,200 1,920 Climbing FlightAware ADS-B
04:18PM 47.2494 -123.0287 248° West 411 473 21,800 1,800 Climbing FlightAware ADS-B (CYWH)
04:18PM 47.2392 -123.0660 248° West 412 474 22,100 1,800 Climbing FlightAware ADS-B
04:19PM 47.2179 -123.1452 249° West 418 481 23,000 1,680 Climbing FlightAware ADS-B (CYWH)
04:19PM 47.1970 -123.2240 249° West 424 488 23,800 1,560 Climbing FlightAware ADS-B (CYVR)
04:20PM 47.1793 -123.2908 249° West 430 495 24,600 1,500 Climbing FlightAware ADS-B (CYWH)
04:20PM 47.1745 -123.3090 249° West 430 495 24,600 1,500 Level FlightAware ADS-B
04:20PM 47.1527 -123.3920 249° West 434 499 25,400 1,560 Climbing FlightAware ADS-B
04:20PM 47.1470 -123.4132 249° West 436 502 25,600 1,500 Climbing FlightAware ADS-B (CYWH)
04:21PM 47.1303 -123.4760 249° West 439 505 26,200 1,500 Climbing FlightAware ADS-B
04:21PM 47.1255 -123.4939 249° West 439 505 26,400 1,560 Climbing FlightAware ADS-B (CYVR)
04:21PM 47.1079 -123.5590 248° West 442 509 27,000 1,560 Climbing FlightAware ADS-B
04:21PM 47.1018 -123.5823 249° West 443 510 27,200 1,380 Climbing FlightAware ADS-B (CYVR)
04:22PM 47.0852 -123.6440 248° West 445 512 27,700 1,380 Climbing FlightAware ADS-B
04:22PM 47.0829 -123.6522 248° West 446 513 27,900 1,380 Climbing FlightAware ADS-B (CYVR)
04:22PM 47.0623 -123.7280 248° West 448 516 28,400 1,380 Climbing FlightAware ADS-B
04:22PM 47.0567 -123.7489 248° West 449 517 28,600 1,320 Climbing FlightAware ADS-B (CYWH)
04:23PM 47.0389 -123.8140 248° West 452 520 29,100 1,200 Climbing FlightAware ADS-B
04:23PM 47.0276 -123.8555 248° West 454 522 29,400 1,200 Climbing FlightAware ADS-B (CYVR)
04:23PM 47.0156 -123.9000 248° West 456 525 29,700 1,380 Climbing FlightAware ADS-B
04:24PM 47.0042 -123.9413 248° West 456 525 30,100 1,380 Climbing FlightAware ADS-B (CYVR)
04:24PM 46.9918 -123.9860 248° West 456 525 30,400 1,260 Climbing FlightAware ADS-B
04:24PM 46.9760 -124.0440 247° West 454 522 30,800 1,380 Climbing FlightAware ADS-B
04:24PM 46.9706 -124.0600 242° Southwest 453 521 31,000 1,500 Climbing FlightAware ADS-B
04:24PM 46.9642 -124.0750 237° Southwest 451 519 31,100 1,200 Climbing FlightAware ADS-B
04:24PM 46.9585 -124.0860 232° Southwest 450 518 31,200 1,200 Climbing FlightAware ADS-B
04:25PM 46.9638 -124.0762 227° Southwest 450 518 31,300 960 Climbing FlightAware ADS-B
04:25PM 46.9420 -124.1100 222° Southwest 451 519 31,400 840 Climbing FlightAware ADS-B
04:25PM 46.9288 -124.1240 213° Southwest 454 522 31,500 420 Climbing FlightAware ADS-B
04:25PM 46.9173 -124.1336 206° Southwest 457 526 31,500 660 Level FlightAware ADS-B
04:25PM 46.8858 -124.1485 187° South 466 536 31,800 720 Climbing FlightAware ADS-B
04:25PM 46.8674 -124.1510 212° Southwest 454 522 31,800 660 Level FlightAware ADS-B
04:26PM 46.9259 -124.1269 221° Southwest 452 520 32,000 720 Climbing FlightAware ADS-B (CYVR)
04:26PM 46.8005 -124.1530 212° Southwest 454 522 32,200 840 Climbing FlightAware ADS-B
04:26PM 46.8018 -124.1529 181° South 476 548 32,300 1,680 Climbing FlightAware ADS-B
04:26PM 46.7834 -124.1530 180° South 476 548 32,400 840 Climbing FlightAware ADS-B
04:26PM 46.7157 -124.1540 180° South 480 552 32,800 720 Climbing FlightAware ADS-B
04:27PM 46.6984 -124.1541 181° South 481 554 32,900 960 Climbing FlightAware ADS-B
04:27PM 46.6486 -124.1550 181° South 482 555 33,300 900 Climbing FlightAware ADS-B
04:27PM 46.6111 -124.1554 181° South 482 555 33,500 720 Climbing FlightAware ADS-B
04:27PM 46.5807 -124.1560 181° South 483 556 33,700 720 Climbing FlightAware ADS-B
04:28PM 46.5329 -124.1569 181° South 486 559 34,000 600 Climbing FlightAware ADS-B
04:28PM 46.5131 -124.1570 181° South 486 559 34,000  Level FlightAware ADS-B
04:28PM 46.4447 -124.1590 181° South 490 564 34,000  Level FlightAware ADS-B
04:29PM 46.4329 -124.1590 181° South 492 566 34,000  Level FlightAware ADS-B
04:29PM 46.3751 -124.1600 181° South 499 574 34,000  Level FlightAware ADS-B
04:29PM 46.3501 -124.1607 181° South 500 575 34,000  Level FlightAware ADS-B
04:30PM 46.2509 -124.1626 181° South 505 581 34,000  Level FlightAware ADS-B
04:30PM 46.2374 -124.1630 181° South 500 575 34,000  Level FlightAware ADS-B
04:31PM 46.1624 -124.1640 181° South 507 583 34,000  Level FlightAware ADS-B
04:31PM 46.2154 -124.1633 181° South 507 583 34,000  Level FlightAware ADS-B
04:31PM 46.0914 -124.1660 181° South 505 581 34,000  Level FlightAware ADS-B
04:31PM 46.0638 -124.1661 181° South 505 581 34,000  Level FlightAware ADS-B
04:32PM 45.9906 -124.1670 181° South 505 581 34,000  Level FlightAware ADS-B
04:32PM 45.9189 -124.1688 181° South 504 580 34,000  Level FlightAware ADS-B
04:32PM 45.8993 -124.1690 181° South 504 580 34,000  Level FlightAware ADS-B
04:33PM 45.8251 -124.1710 181° South 505 581 34,000  Level FlightAware ADS-B
04:33PM 45.7536 -124.1720 181° South 506 582 34,000  Level FlightAware ADS-B
04:34PM 45.7392 -124.1722 181° South 506 582 34,000  Level FlightAware ADS-B
04:34PM 45.6831 -124.1730 181° South 506 582 34,000  Level FlightAware ADS-B
04:34PM 45.6480 -124.1738 181° South 506 582 34,000  Level FlightAware ADS-B
04:34PM 45.6106 -124.1750 181° South 507 583 34,000  Level FlightAware ADS-B
04:35PM 45.5394 -124.1760 181° South 506 582 34,000  Level FlightAware ADS-B
04:35PM 45.4973 -124.1767 181° South 505 581 34,000  Level FlightAware ADS-B
04:35PM 45.4693 -124.1770 181° South 505 581 34,000  Level FlightAware ADS-B
04:36PM 45.4189 -124.1781 181° South 505 581 34,000  Level FlightAware ADS-B
04:36PM 45.3964 -124.1790 181° South 505 581 34,000  Level FlightAware ADS-B
04:37PM 45.3227 -124.1800 181° South 504 580 34,000  Level FlightAware ADS-B
04:37PM 45.2528 -124.1810 181° South 504 580 34,000  Level FlightAware ADS-B
04:37PM 45.2528 -124.1811 181° South 505 581 34,000  Level FlightAware ADS-B
04:38PM 45.1790 -124.1820 181° South 505 581 34,000  Level FlightAware ADS-B
04:38PM 45.1072 -124.1840 181° South 505 581 34,000  Level FlightAware ADS-B
04:39PM 45.0367 -124.1850 181° South 505 581 34,000  Level FlightAware ADS-B
04:39PM 45.0002 -124.1858 181° South 505 581 34,000  Level FlightAware ADS-B
04:39PM 44.9638 -124.1860 181° South 506 582 34,000  Level FlightAware ADS-B
04:40PM 44.8932 -124.1880 181° South 506 582 34,000  Level FlightAware ADS-B
04:40PM 44.8670 -124.1882 181° South 505 581 34,000  Level FlightAware ADS-B
04:40PM 44.8087 -124.1890 181° South 505 581 34,000  Level FlightAware ADS-B
04:41PM 44.7530 -124.1902 181° South 506 582 34,000  Level FlightAware ADS-B
04:41PM 44.7381 -124.1900 181° South 506 582 34,000  Level FlightAware ADS-B
04:41PM 44.6633 -124.1920 181° South 506 582 34,000  Level FlightAware ADS-B
04:41PM 44.6806 -124.1915 181° South 506 582 34,000  Level FlightAware ADS-B
04:42PM 44.5922 -124.1930 181° South 506 582 34,000  Level FlightAware ADS-B
04:42PM 44.5688 -124.1934 181° South 506 582 34,000  Level FlightAware ADS-B
04:42PM 44.5112 -124.1940 181° South 506 582 34,000  Level FlightAware ADS-B
04:43PM 44.4733 -124.1951 181° South 506 582 34,000  Level FlightAware ADS-B
04:43PM 44.4402 -124.1960 181° South 505 581 34,000  Level FlightAware ADS-B
04:43PM 44.3765 -124.1968 181° South 506 582 34,000  Level FlightAware ADS-B
04:43PM 44.3686 -124.1970 181° South 506 582 34,000  Level FlightAware ADS-B
04:44PM 44.2964 -124.1980 181° South 508 585 34,000  Level FlightAware ADS-B
04:44PM 44.3058 -124.1981 181° South 508 585 34,000  Level FlightAware ADS-B
04:44PM 44.2246 -124.2000 181° South 508 585 34,000  Level FlightAware ADS-B
04:45PM 44.1517 -124.2010 181° South 509 586 34,000  Level FlightAware ADS-B
04:46PM 43.9689 -124.2044 181° South 508 585 34,000  Level Seattle Center
04:47PM 43.8333 -124.2339 189° South 502 578 34,000 -60 Level Seattle Center
04:48PM 43.7361 -124.3561 222° Southwest 474 545 33,900 -120 Descending Seattle Center
04:49PM 43.6394 -124.4778 222° Southwest 475 547 33,800 -900 Descending Seattle Center
04:50PM 43.5392 -124.5889 219° Southwest 464 534 32,100 -2,220 Descending Seattle Center
04:51PM 43.4506 -124.6969 222° Southwest 433 498 29,400 -3,720 Descending Seattle Center
04:52PM 43.3925 -124.8228 238° Southwest 397 457 24,600 -4,620 Descending Seattle Center
04:53PM 43.3467 -124.9500 244° Southwest 380 437 20,100 -4,380 Descending Seattle Center
04:54PM 43.3125 -125.0758 250° West 360 414 15,700 -3,000 Descending Seattle Center
04:55PM 43.3586 -125.1775 302° West 328 377 14,000 -840 Descending Seattle Center
04:56PM 43.4428 -125.1906 354° North 310 357 14,000 -60 Level Seattle Center
04:57PM 43.5222 -125.2017 354° North 294 338 13,900 -540 Descending Seattle Center
04:58PM 43.5000 -125.2378 230° Southwest 305 351 13,000 120 Descending Seattle Center
04:59PM 43.4300 -125.1931 155° Southeast 286 329 14,200 960 Climbing Seattle Center
05:00PM 43.3553 -125.2311 200° South 288 331 15,000  Climbing Seattle Center
05:01PM 43.2894 -125.2661 201° Southwest 264 304 14,200  Descending Seattle Center
05:02PM 43.3069 -125.3683 283° West 302 348 15,000 240 Climbing Seattle Center
05:03PM 43.2486 -125.4292 217° Southwest 278 320 14,800  Descending Seattle Center
05:04PM 43.1819 -125.4222 176° South 275 316 15,100 60 Climbing Seattle Center
05:06PM 43.1111 -125.3653 150° Southeast 288 331 15,000 -120 Descending Seattle Center
05:07PM 43.0381 -125.3153 153° Southeast 295 339 14,900 -600 Descending Seattle Center
05:08PM 42.9764 -125.3428 198° South 282 325 13,900 -360 Descending Seattle Center
05:19PM 42.7300 -125.4578 139° Southeast 322 371 11,200 -360 Descending Seattle Center
05:20PM 42.7939 -125.4053 31° Northeast 308 354 9,900 180 Descending Seattle Center
05:21PM 42.8319 -125.4889 302° West 266 306 11,600 1,620 Climbing Seattle Center
05:22PM 42.7886 -125.5508 226° Southwest 291 335 13,300  Climbing Seattle Center
05:23PM 42.7697 -125.1246 167° South  Level FlightAware Approximate
05:23PM 42.7181 -125.5375 172° South 292 336 11,700  Level Seattle Center
05:24PM 42.7141 -125.1067 167° South  Level FlightAware Approximate
05:24PM 42.7406 -125.4325 74° East 303 349 10,000  Level Seattle Center
05:25PM 42.6589 -125.0889 167° South  Level FlightAware Approximate
05:25PM 42.8125 -125.3928 22° Northeast 315 362 11,600  Level Seattle Center
05:26PM 42.6036 -125.0712 167° South  Level FlightAware Approximate
05:26PM 42.8647 -125.4472 323° Northwest 298 343 12,100  Level Seattle Center
05:27PM 42.5483 -125.0534 167° South  Level FlightAware Approximate
05:28PM 42.4930 -125.0357 167° South  Level FlightAware Approximate
05:28PM 42.7342 -125.5244 188° South 256 295 10,900  Level Seattle Center
05:29PM 42.5464 -125.0093 139° Southeast  Level Estimated
05:29PM 42.6942 -125.4250 119° Southeast 300 345 12,100  Level Seattle Center
05:31PM 42.8406 -125.3569 359° North 303 349 11,300 -300 Descending Seattle Center
05:32PM 42.9039 -125.3981 335° Northwest 288 331 11,300 -240 Level Seattle Center
05:33PM 42.9278 -125.4811 291° West 275 316 10,900 540 Descending Seattle Center
05:34PM 42.9086 -125.5697 254° West 245 282 12,500 1,620 Climbing Seattle Center
05:35PM 42.8386 -125.5225 154° Southeast 293 337 14,200 1,620 Climbing Seattle Center
05:36PM 42.7694 -125.4558 145° Southeast 296 341 15,800 1,260 Climbing Seattle Center
05:37PM 42.7906 -125.3189 78° East 391 450 16,800 780 Climbing Seattle Center
05:38PM 42.8772 -125.2250 38° Northeast 398 458 17,500 300 Climbing Seattle Center
05:39PM 42.9750 -125.1242 37° Northeast 397 457 17,500  Level Seattle Center
05:40PM 43.0708 -125.0494 30° Northeast 400 460 17,500 -300 Level Seattle Center
05:41PM 43.1367 -125.0903 336° Northwest 373 429 17,000  Descending Seattle Center
05:42PM 43.0928 -125.1944 240° Southwest 340 391 17,500 240 Climbing Seattle Center
05:43PM 43.0233 -125.2783 221° Southwest 333 383 17,600 -180 Climbing Seattle Center
05:44PM 42.9408 -125.2142 150° Southeast 390 449 17,200 -540 Descending Seattle Center
05:45PM 42.9003 -125.0872 114° Southeast 436 502 16,600 -180 Descending Seattle Center
05:46PM 42.9872 -125.0294 26° Northeast 400 460 16,900 480 Climbing Seattle Center
05:47PM 43.0864 -124.9667 25° Northeast 396 456 17,600 180 Climbing Seattle Center
05:48PM 43.1875 -124.9036 24° Northeast 396 456 17,300 -1,740 Descending Seattle Center
05:49PM 43.1964 -124.9781 279° West 371 427 14,100 -900 Descending Seattle Center
05:50PM 43.1258 -125.0656 222° Southwest 348 400 15,600 1,500 Climbing Seattle Center
05:51PM 43.0561 -125.1522 222° Southwest 345 397 17,200 1,620 Climbing Seattle Center
05:52PM 42.9700 -125.1350 172° South 361 415 19,000 2,160 Climbing Seattle Center
05:53PM 42.9781 -124.9889 86° East 410 472 21,600 2,400 Climbing Seattle Center
05:54PM 43.0628 -124.9022 37° Northeast 386 444 24,000 2,100 Climbing Seattle Center
05:55PM 43.1519 -124.8144 36° Northeast 392 451 25,900 1,980 Climbing Seattle Center
05:56PM 43.2400 -124.7319 34° Northeast 391 450 28,100 1,500 Climbing Seattle Center
05:57PM 43.3283 -124.7253 North 344 396 29,000 420 Climbing Seattle Center
05:58PM 43.4056 -124.8064 323° Northwest 352 405 29,000  Level Seattle Center
05:59PM 43.4364 -124.9419 287° West 390 449 29,000  Level Seattle Center
06:00PM 43.3681 -125.0636 232° Southwest 434 499 29,000 -60 Level Seattle Center
06:01PM 43.2314 -125.0200 167° South 502 578 28,900  Descending Seattle Center
06:02PM 43.0603 -124.9383 161° South 540 621 29,100 -300 Climbing Seattle Center
06:03PM 42.9169 -124.8708 161° South 543 625 28,400 -540 Descending Seattle Center
06:04PM 42.7942 -124.8119 161° South 528 608 28,100 -420 Descending Seattle Center
06:05PM 42.6508 -124.7450 161° South 545 627 27,600 -900 Descending Seattle Center
06:06PM 42.5125 -124.6789 161° South 532 612 26,300 -180 Descending Seattle Center
06:07PM 42.3772 -124.6225 163° South 518 596 27,300 840 Climbing Seattle Center
06:08PM 42.2600 -124.7342 215° Southwest 453 521 28,100 780 Climbing Seattle Center
06:09PM 42.3125 -124.8581 300° West 435 501 28,900 1,200 Climbing Seattle Center
06:10PM 42.4394 -124.8211 12° North 481 554 30,600 1,740 Climbing Seattle Center
06:12PM 42.5675 -124.7569 20° North 487 560 32,500 1,380 Climbing Seattle Center
06:13PM 42.6936 -124.7039 17° North 479 551 33,500 780 Climbing Seattle Center
06:14PM 42.8250 -124.6553 15° North 489 563 34,200 720 Climbing Seattle Center
06:15PM 42.9456 -124.6086 16° North 500 575 35,000 360 Climbing Seattle Center
06:16PM 43.0783 -124.5561 16° North 502 578 35,000 -60 Level Seattle Center
06:17PM 43.2097 -124.5003 17° North 501 577 34,900  Descending Seattle Center
06:23PM 44.0334 -124.1730 16° North 502 578 35,000  Climbing FlightAware ADS-B
06:23PM 44.1006 -124.1450 17° North 503 579 35,000  Level FlightAware ADS-B
06:24PM 44.1688 -124.1170 16° North 504 580 35,000  Level FlightAware ADS-B
06:25PM 44.4057 -124.0192 17° North 506 582 35,000  Level FlightAware ADS-B
06:26PM 44.4424 -124.0040 17° North 506 582 35,000  Level FlightAware ADS-B
06:26PM 44.4922 -123.9832 17° North 505 581 35,000  Level FlightAware ADS-B
06:26PM 44.5123 -123.9750 17° North 505 581 35,000  Level FlightAware ADS-B
06:27PM 44.5897 -123.9425 17° North 506 582 35,000  Level FlightAware ADS-B
06:27PM 44.6724 -123.9079 17° North 509 586 35,000  Level FlightAware ADS-B
06:28PM 44.7572 -123.8720 1000° North 493 567 35,000  Level FlightAware ADS-B
06:28PM 44.7693 -123.8673 17° North 508 585 35,000  Level FlightAware ADS-B
06:28PM 44.7797 -123.8630 17° North 508 585 35,000  Level FlightAware ADS-B
06:29PM 44.8486 -123.8340 17° North 510 587 35,000  Level FlightAware ADS-B
06:29PM 44.8455 -123.8351 17° North 510 587 35,000  Level FlightAware ADS-B
06:29PM 44.9168 -123.8050 17° North 511 588 35,000  Level FlightAware ADS-B
06:29PM 44.9431 -123.7939 17° North 510 587 35,000  Level FlightAware ADS-B
06:30PM 44.9850 -123.7760 17° North 510 587 35,000  Level FlightAware ADS-B
06:30PM 45.0397 -123.7529 17° North 512 589 35,000  Level FlightAware ADS-B
06:30PM 45.0560 -123.7460 17° North 513 590 35,000  Level FlightAware ADS-B
06:31PM 45.1252 -123.7170 17° North 510 587 35,000  Level FlightAware ADS-B
06:31PM 45.1302 -123.7144 17° North 510 587 35,000  Level FlightAware ADS-B
06:31PM 45.1938 -123.6870 17° North 510 587 35,000  Level FlightAware ADS-B
06:31PM 45.2100 -123.6804 17° North 510 587 35,000  Level FlightAware ADS-B
06:32PM 45.2623 -123.6580 17° North 510 587 35,000  Level FlightAware ADS-B
06:32PM 45.3114 -123.6370 17° North 508 585 35,000  Level FlightAware ADS-B
06:32PM 45.3303 -123.6290 17° North 508 585 35,000  Level FlightAware ADS-B
06:33PM 45.3982 -123.6000 17° North 509 586 35,000  Level FlightAware ADS-B
06:33PM 45.4041 -123.5971 17° North 509 586 35,000  Level FlightAware ADS-B
06:33PM 45.4665 -123.5700 17° North 507 583 35,000  Level FlightAware ADS-B
06:33PM 45.4772 -123.5655 17° North 507 583 35,000  Level FlightAware ADS-B
06:34PM 45.5617 -123.5290 17° North 509 586 35,000  Level FlightAware ADS-B
06:34PM 45.5626 -123.5286 17° North 509 586 35,000  Level FlightAware ADS-B
06:34PM 45.6297 -123.5000 17° North 510 587 35,000  Level FlightAware ADS-B
06:35PM 45.6730 -123.4808 17° North 510 587 35,000  Level FlightAware ADS-B
06:35PM 45.6982 -123.4700 17° North 511 588 35,000 -180 Level FlightAware ADS-B
06:35PM 45.7380 -123.4525 17° North 512 589 34,900 -240 Descending FlightAware ADS-B
06:35PM 45.7679 -123.4400 17° North 512 589 34,900 -2,280 Level FlightAware ADS-B
06:36PM 45.8363 -123.4100 17° North 508 585 33,700 -2,880 Descending FlightAware ADS-B
06:36PM 45.8448 -123.4059 17° North 507 583 33,300 -2,460 Descending FlightAware ADS-B
06:37PM 45.9272 -123.3698 17° North 508 585 31,700 -2,100 Descending FlightAware ADS-B
06:37PM 45.9556 -123.3570 17° North 507 583 31,600 -1,980 Descending FlightAware ADS-B
06:37PM 46.0239 -123.3270 17° North 513 590 30,600 -2,040 Descending FlightAware ADS-B
06:37PM 46.0012 -123.3373 17° North 511 588 30,400 -1,800 Descending FlightAware ADS-B
06:38PM 46.0918 -123.2970 17° North 499 574 29,700 -1,860 Descending FlightAware ADS-B
06:38PM 46.1576 -123.2680 17° North 494 568 28,700 -2,280 Descending FlightAware ADS-B
06:39PM 46.1806 -123.2578 17° North 491 565 27,900 -2,040 Descending FlightAware ADS-B
06:39PM 46.2236 -123.2390 17° North 483 556 27,700 -1,680 Descending FlightAware ADS-B
06:39PM 46.2871 -123.2100 17° North 471 542 26,700 -1,920 Descending FlightAware ADS-B
06:40PM 46.3491 -123.1830 17° North 462 532 25,800 -2,040 Descending FlightAware ADS-B
06:40PM 46.3679 -123.1745 17° North 462 532 25,400 -2,040 Descending FlightAware ADS-B
06:40PM 46.4110 -123.1550 17° North 459 528 24,800 -1,800 Descending FlightAware ADS-B
06:41PM 46.4540 -123.1360 17° North 454 522 24,100 -1,800 Descending FlightAware ADS-B
06:41PM 46.4717 -123.1280 17° North 452 520 23,900 -1,920 Descending FlightAware ADS-B
06:41PM 46.5314 -123.1010 17° North 444 511 22,900 -1,980 Descending FlightAware ADS-B
06:42PM 46.5901 -123.0750 17° North 437 503 21,900 -1,920 Descending FlightAware ADS-B
06:42PM 46.6480 -123.0490 17° North 441 507 21,000 -1,920 Descending FlightAware ADS-B
06:43PM 46.7065 -123.0230 17° North 436 502 20,000 -2,040 Descending FlightAware ADS-B
06:43PM 46.7644 -122.9960 17° North 430 495 19,000 -2,040 Descending FlightAware ADS-B
06:44PM 46.8212 -122.9700 17° North 423 487 18,000 -1,200 Descending FlightAware ADS-B
06:44PM 46.8752 -122.9460 17° North 395 455 17,800 -360 Descending FlightAware ADS-B
06:44PM 46.8845 -122.9415 17° North 390 449 17,800 -420 Level FlightAware ADS-B (CYVR)
06:45PM 46.9259 -122.9230 17° North 369 425 17,600 -540 Descending FlightAware ADS-B
06:45PM 46.9455 -122.9130 20° North 364 419 17,500 -720 Descending FlightAware ADS-B
06:45PM 46.9673 -122.9000 26° Northeast 361 415 17,300 -1,860 Descending FlightAware ADS-B
06:45PM 46.9846 -122.8860 30° Northeast 358 412 16,700 -3,300 Descending FlightAware ADS-B
06:46PM 46.9990 -122.8720 36° Northeast 358 412 16,100 -3,000 Descending FlightAware ADS-B
06:46PM 47.0118 -122.8570 40° Northeast 350 403 15,700 -2,520 Descending FlightAware ADS-B
06:46PM 47.0466 -122.8130 41° Northeast 318 366 14,400 -2,580 Descending FlightAware ADS-B
06:47PM 47.0785 -122.7710 42° Northeast 293 337 13,100 -2,700 Descending FlightAware ADS-B
06:47PM 47.0975 -122.7470 41° Northeast 281 323 12,200 -2,580 Descending FlightAware ADS-B
06:48PM 47.1261 -122.7090 42° Northeast 266 306 11,000 -1,920 Descending FlightAware ADS-B
06:48PM 47.1534 -122.6730 42° Northeast 262 302 10,300 -720 Descending FlightAware ADS-B
06:49PM 47.1807 -122.6380 42° Northeast 264 304 10,300 -360 Level FlightAware ADS-B
06:49PM 47.2015 -122.6100 42° Northeast 259 298 10,000 -1,140 Descending FlightAware ADS-B
06:49PM 47.2152 -122.5920 42° Northeast 259 298 9,600 -1,560 Descending FlightAware ADS-B
06:50PM 47.2296 -122.5740 42° Northeast 259 298 9,200 -1,140 Descending FlightAware ADS-B
06:50PM 47.2436 -122.5550 42° Northeast 254 292 9,000 -840 Descending FlightAware ADS-B
06:50PM 47.2551 -122.5410 40° Northeast 249 287 8,800 -900 Descending FlightAware ADS-B
06:50PM 47.2629 -122.5340 30° Northeast 247 284 8,700 -960 Descending FlightAware ADS-B
06:50PM 47.2682 -122.5310 17° North 242 278 8,600 -1,380 Descending FlightAware ADS-B
06:50PM 47.2726 -122.5300 10° North 239 275 8,500 -1,500 Descending FlightAware ADS-B
06:50PM 47.2773 -122.5290 North 236 272 8,400 -1,200 Descending FlightAware ADS-B
06:51PM 47.2885 -122.5290 North 234 269 8,200 -1,440 Descending FlightAware ADS-B
06:51PM 47.3047 -122.5280 North 229 264 7,800 -1,500 Descending FlightAware ADS-B
06:51PM 47.3093 -122.5290 360° North 228 262 7,700 -1,200 Descending FlightAware ADS-B
06:51PM 47.3251 -122.5290 359° North 225 259 7,400 -1,080 Descending FlightAware ADS-B
06:51PM 47.3392 -122.5290 359° North 220 253 7,200 -1,020 Descending FlightAware ADS-B
06:52PM 47.3558 -122.5300 359° North 217 250 6,900 -1,140 Descending FlightAware ADS-B
06:52PM 47.3720 -122.5300 358° North 216 249 6,600 -1,200 Descending FlightAware ADS-B
06:52PM 47.3872 -122.5310 358° North 216 249 6,300 -1,200 Descending FlightAware ADS-B
06:53PM 47.4125 -122.5320 358° North 219 252 5,800 -1,080 Descending FlightAware ADS-B
06:53PM 47.4277 -122.5320 358° North 215 247 5,600 -960 Descending FlightAware ADS-B
06:53PM 47.4437 -122.5330 359° North 208 239 5,300 -1,140 Descending FlightAware ADS-B
06:53PM 47.4586 -122.5330 359° North 205 236 5,000 -1,200 Descending FlightAware ADS-B
06:54PM 47.4729 -122.5340 358° North 203 234 4,700 -1,200 Descending FlightAware ADS-B
06:54PM 47.4878 -122.5350 358° North 201 231 4,400 -600 Descending FlightAware ADS-B
06:54PM 47.5014 -122.5360 358° North 196 226 4,400  Level FlightAware ADS-B
06:54PM 47.5160 -122.5360 358° North 205 236 4,400  Level FlightAware ADS-B
06:55PM 47.5357 -122.5370 358° North 205 236 4,400  Level FlightAware ADS-B
06:55PM 47.5572 -122.5380 358° North 203 234 4,400 -240 Level FlightAware ADS-B
06:56PM 47.5827 -122.5390 359° North 202 232 4,200 -840 Descending FlightAware ADS-B
06:57PM 47.6449 -122.5290 39° Northeast 193 222 3,100 -1,020 Descending FlightAware ADS-B
06:57PM 47.6468 -122.5250 50° Northeast 190 219 3,000 -1,020 Descending FlightAware ADS-B
06:57PM 47.6515 -122.5170 53° Northeast 188 216 2,900 -540 Descending FlightAware ADS-B
06:57PM 47.6585 -122.5030 54° Northeast 185 213 2,800 -600 Descending FlightAware ADS-B
06:57PM 47.6669 -122.4850 54° Northeast 185 213 2,600 -300 Descending FlightAware ADS-B
06:58PM 47.6716 -122.4520 54° Northeast 185 213 2,600  Level FlightAware ADS-B
06:58PM 47.6668 -122.4340 109° East 170 196 2,600 -240 Level FlightAware ADS-B
06:59PM 47.6611 -122.4170 123° Southeast 166 191 2,500  Descending FlightAware ADS-B
06:59PM 47.6528 -122.4070 146° Southeast 164 189 2,600  Climbing FlightAware ADS-B
06:59PM 47.6478 -122.4030 149° Southeast 160 184 2,500  Descending FlightAware ADS-B
06:59PM 47.6370 -122.3930 149° Southeast 154 177 2,600 -240 Climbing FlightAware ADS-B
06:59PM 47.6273 -122.3850 150° Southeast 157 181 2,400 -840 Descending FlightAware ADS-B
07:00PM 47.6134 -122.3730 151° Southeast 155 178 2,100 -900 Descending FlightAware ADS-B
07:00PM 47.6023 -122.3640 150° Southeast 158 182 1,800 -900 Descending FlightAware ADS-B
07:00PM 47.5875 -122.3510 150° Southeast 159 183 1,500 -1,140 Descending FlightAware ADS-B
07:01PM 47.5608 -122.3289 150° Southeast 157 181 500 18,780 Descending Seattle Center
07:02PM 47.5217 -122.2950 150° Southeast 157 181 35,000 33,900 Climbing Seattle Center